createdAt,value
2023-05-05T00:01:04.777Z,101480.98
2023-05-05T00:03:37.560Z,101478.73
2023-05-05T00:06:07.213Z,101478.27
2023-05-05T00:08:35.927Z,101476.51
2023-05-05T00:11:04.596Z,101472.95
2023-05-05T00:13:33.274Z,101471.19
2023-05-05T00:16:01.903Z,101475.14
2023-05-05T00:18:30.656Z,101474.50
2023-05-05T00:20:59.416Z,101473.30
2023-05-05T00:23:28.076Z,101474.27
2023-05-05T00:25:56.725Z,101470.30
2023-05-05T00:28:25.736Z,101467.98
2023-05-05T00:30:54.432Z,101470.22
2023-05-05T00:33:23.659Z,101473.44
2023-05-05T00:35:52.361Z,101479.02
2023-05-05T00:38:21.016Z,101483.23
2023-05-05T00:40:49.789Z,101480.25
2023-05-05T00:43:18.457Z,101482.30
2023-05-05T00:45:48.137Z,101481.52
2023-05-05T00:48:17.940Z,101479.96
2023-05-05T00:50:46.606Z,101478.70
2023-05-05T00:53:15.527Z,101483.01
2023-05-05T00:55:44.165Z,101481.09
2023-05-05T00:58:13.620Z,101482.95
2023-05-05T01:00:42.603Z,101483.24
2023-05-05T01:03:13.156Z,101484.46
2023-05-05T01:06:10.173Z,101482.32
2023-05-05T01:09:06.768Z,101481.08
2023-05-05T01:11:44.559Z,101484.91
2023-05-05T01:14:18.606Z,101482.55
2023-05-05T01:17:01.376Z,101484.85
2023-05-05T01:19:46.959Z,101487.66
2023-05-05T01:22:19.941Z,101489.52
2023-05-05T01:25:07.217Z,101485.78
2023-05-05T01:27:59.465Z,101481.11
2023-05-05T01:30:36.715Z,101479.64
2023-05-05T01:33:08.567Z,101478.18
2023-05-05T01:35:43.747Z,101477.77
2023-05-05T01:38:21.261Z,101471.05
2023-05-05T01:41:01.855Z,101475.80
2023-05-05T01:43:34.636Z,101472.64
2023-05-05T01:46:04.978Z,101475.21
2023-05-05T01:48:34.136Z,101472.66
2023-05-05T01:51:04.342Z,101476.66
2023-05-05T01:53:34.407Z,101474.35
2023-05-05T01:56:04.190Z,101469.41
2023-05-05T01:58:34.324Z,101470.24
2023-05-05T02:01:04.165Z,101473.95
2023-05-05T02:03:36.267Z,101473.61
2023-05-05T02:06:07.434Z,101474.53
2023-05-05T02:08:38.587Z,101476.92
2023-05-05T02:11:09.984Z,101475.84
2023-05-05T02:13:42.092Z,101476.38
2023-05-05T02:16:12.989Z,101477.63
2023-05-05T02:18:42.565Z,101473.69
2023-05-05T02:21:11.307Z,101476.45
2023-05-05T02:23:40.423Z,101471.01
2023-05-05T02:26:12.114Z,101468.64
2023-05-05T02:28:51.558Z,101469.34
2023-05-05T02:31:23.982Z,101470.73
2023-05-05T02:33:55.054Z,101471.11
2023-05-05T02:36:28.591Z,101472.08
2023-05-05T02:39:02.347Z,101473.05
2023-05-05T02:41:34.717Z,101475.13
2023-05-05T02:44:05.181Z,101481.32
2023-05-05T02:46:33.965Z,101478.54
2023-05-05T02:49:02.667Z,101482.27
2023-05-05T02:51:32.660Z,101481.19
2023-05-05T02:54:01.763Z,101481.23
2023-05-05T02:56:51.046Z,101475.54
2023-05-05T02:59:49.575Z,101472.98
2023-05-05T03:02:27.432Z,101474.23
2023-05-05T03:05:23.911Z,101474.89
2023-05-05T03:08:01.773Z,101480.77
2023-05-05T03:10:36.431Z,101479.98
2023-05-05T03:13:09.314Z,101486.48
2023-05-05T03:15:43.550Z,101489.83
2023-05-05T03:18:15.583Z,101489.39
2023-05-05T03:20:44.367Z,101489.87
2023-05-05T03:23:18.368Z,101485.17
2023-05-05T03:25:49.208Z,101494.98
2023-05-05T03:28:18.065Z,101495.05
2023-05-05T03:30:46.774Z,101495.80
2023-05-05T03:33:16.184Z,101497.61
2023-05-05T03:35:45.055Z,101493.31
2023-05-05T03:38:13.718Z,101497.16
2023-05-05T03:40:44.678Z,101499.86
2023-05-05T03:43:13.762Z,101502.20
2023-05-05T03:45:42.537Z,101501.90
2023-05-05T03:48:11.431Z,101501.69
2023-05-05T03:50:40.640Z,101500.91
2023-05-05T03:53:09.305Z,101502.92
2023-05-05T03:55:37.956Z,101499.47
2023-05-05T03:58:07.083Z,101501.92
2023-05-05T04:00:35.781Z,101504.80
2023-05-05T04:03:04.553Z,101504.86
2023-05-05T04:05:33.372Z,101504.69
2023-05-05T04:08:03.480Z,101504.80
2023-05-05T04:10:32.299Z,101505.50
2023-05-05T04:13:01.065Z,101501.11
2023-05-05T04:15:30.133Z,101502.11
2023-05-05T04:17:58.882Z,101502.35
2023-05-05T04:20:27.616Z,101502.77
2023-05-05T04:22:56.353Z,101504.48
2023-05-05T04:25:25.086Z,101502.39
2023-05-05T04:27:53.811Z,101501.83
2023-05-05T04:30:22.486Z,101505.34
2023-05-05T04:32:51.172Z,101506.38
2023-05-05T04:35:19.862Z,101510.85
2023-05-05T04:37:48.721Z,101509.33
2023-05-05T04:40:17.462Z,101507.00
2023-05-05T04:42:46.373Z,101507.45
2023-05-05T04:45:15.161Z,101512.26
2023-05-05T04:47:43.964Z,101514.08
2023-05-05T04:50:13.565Z,101521.23
2023-05-05T04:52:42.251Z,101525.46
2023-05-05T04:55:11.602Z,101531.05
2023-05-05T04:57:40.406Z,101535.27
2023-05-05T05:00:09.921Z,101535.16
2023-05-05T05:02:38.911Z,101539.01
2023-05-05T05:05:08.201Z,101537.25
2023-05-05T05:07:36.851Z,101537.04
2023-05-05T05:10:06.239Z,101536.02
2023-05-05T05:12:35.533Z,101537.68
2023-05-05T05:15:04.859Z,101540.52
2023-05-05T05:17:33.546Z,101546.73
2023-05-05T05:20:05.021Z,101551.05
2023-05-05T05:22:34.949Z,101549.33
2023-05-05T05:25:03.871Z,101553.45
2023-05-05T05:27:32.568Z,101552.70
2023-05-05T05:30:01.306Z,101550.24
2023-05-05T05:32:29.999Z,101549.60
2023-05-05T05:34:58.742Z,101551.74
2023-05-05T05:37:31.076Z,101554.74
2023-05-05T05:39:59.828Z,101558.04
2023-05-05T05:42:28.516Z,101559.59
2023-05-05T05:44:58.784Z,101562.06
2023-05-05T05:47:28.136Z,101565.16
2023-05-05T05:49:56.831Z,101568.54
2023-05-05T05:52:25.482Z,101566.77
2023-05-05T05:54:54.126Z,101569.16
2023-05-05T05:57:24.620Z,101567.56
2023-05-05T05:59:54.110Z,101569.55
2023-05-05T06:02:22.870Z,101567.66
2023-05-05T06:04:52.221Z,101569.70
2023-05-05T06:07:20.970Z,101573.42
2023-05-05T06:09:49.684Z,101574.34
2023-05-05T06:12:18.383Z,101571.31
2023-05-05T06:14:47.011Z,101570.98
2023-05-05T06:17:15.685Z,101576.77
2023-05-05T06:19:44.402Z,101582.97
2023-05-05T06:22:13.067Z,101583.52
2023-05-05T06:24:41.715Z,101588.90
2023-05-05T06:27:10.365Z,101592.14
2023-05-05T06:29:39.002Z,101590.64
2023-05-05T06:32:08.503Z,101592.17
2023-05-05T06:34:37.178Z,101587.46
2023-05-05T06:37:05.806Z,101585.28
2023-05-05T06:39:34.442Z,101586.38
2023-05-05T06:42:04.116Z,101589.86
2023-05-05T06:44:34.557Z,101589.54
2023-05-05T06:47:04.036Z,101583.33
2023-05-05T06:49:32.724Z,101590.34
2023-05-05T06:52:01.700Z,101590.34
2023-05-05T06:54:30.381Z,101590.05
2023-05-05T06:56:59.674Z,101591.16
2023-05-05T06:59:28.608Z,101590.23
2023-05-05T07:01:57.394Z,101592.17
2023-05-05T07:04:26.899Z,101592.51
2023-05-05T07:06:55.710Z,101595.52
2023-05-05T07:09:24.535Z,101597.55
2023-05-05T07:11:53.248Z,101598.48
2023-05-05T07:14:24.248Z,101597.85
2023-05-05T07:16:53.276Z,101596.40
2023-05-05T07:19:22.337Z,101599.27
2023-05-05T07:21:52.075Z,101594.21
2023-05-05T07:24:23.324Z,101589.34
2023-05-05T07:26:52.119Z,101586.92
2023-05-05T07:29:20.818Z,101588.50
2023-05-05T07:31:49.513Z,101587.95
2023-05-05T07:34:18.204Z,101585.53
2023-05-05T07:36:46.907Z,101584.83
2023-05-05T07:39:15.815Z,101581.45
2023-05-05T07:41:44.481Z,101586.38
2023-05-05T07:44:13.191Z,101587.66
2023-05-05T07:46:41.902Z,101591.20
2023-05-05T07:49:10.699Z,101591.37
2023-05-05T07:51:39.457Z,101593.40
2023-05-05T07:54:08.537Z,101590.29
2023-05-05T07:56:37.231Z,101594.59
2023-05-05T07:59:05.907Z,101593.11
2023-05-05T08:01:34.644Z,101593.66
2023-05-05T08:04:03.386Z,101597.27
2023-05-05T08:06:32.517Z,101603.45
2023-05-05T08:09:01.861Z,101599.11
2023-05-05T08:11:30.571Z,101600.52
2023-05-05T08:13:59.251Z,101603.73
2023-05-05T08:16:28.046Z,101599.77
2023-05-05T08:18:56.866Z,101601.64
2023-05-05T08:21:25.573Z,101604.07
2023-05-05T08:23:54.225Z,101608.34
2023-05-05T08:26:22.957Z,101611.33
2023-05-05T08:28:55.078Z,101612.38
2023-05-05T08:31:23.818Z,101615.98
2023-05-05T08:33:52.504Z,101618.76
2023-05-05T08:36:21.522Z,101618.21
2023-05-05T08:38:50.222Z,101620.71
2023-05-05T08:41:19.821Z,101625.63
2023-05-05T08:43:49.349Z,101618.23
2023-05-05T08:46:18.050Z,101613.38
2023-05-05T08:48:49.488Z,101604.61
2023-05-05T08:51:19.912Z,101601.48
2023-05-05T08:54:03.849Z,101597.66
2023-05-05T08:56:40.757Z,101603.40
2023-05-05T08:59:13.386Z,101602.80
2023-05-05T09:01:42.804Z,101607.49
2023-05-05T09:04:11.597Z,101607.10
2023-05-05T09:06:40.469Z,101608.59
2023-05-05T09:09:09.265Z,101609.85
2023-05-05T09:11:39.248Z,101610.82
2023-05-05T09:16:54.018Z,101614.16
2023-05-05T09:19:22.698Z,101611.30
2023-05-05T09:21:51.556Z,101607.75
2023-05-05T09:24:20.348Z,101603.07
2023-05-05T09:26:49.860Z,101608.47
2023-05-05T09:29:23.161Z,101610.64
2023-05-05T09:32:05.776Z,101614.60
2023-05-05T09:34:36.171Z,101620.81
2023-05-05T09:37:06.195Z,101611.75
2023-05-05T09:39:35.073Z,101614.89
2023-05-05T09:42:03.856Z,101615.81
2023-05-05T09:44:37.253Z,101614.30
2023-05-05T09:47:14.807Z,101612.90
2023-05-05T09:49:58.839Z,101619.38
2023-05-05T09:52:27.660Z,101623.20
2023-05-05T09:54:57.283Z,101623.52
2023-05-05T09:57:28.332Z,101620.16
2023-05-05T09:59:58.969Z,101622.73
2023-05-05T10:02:39.157Z,101619.50
2023-05-05T10:05:11.733Z,101622.17
2023-05-05T10:07:42.995Z,101623.11
2023-05-05T10:10:14.106Z,101622.85
2023-05-05T10:12:43.120Z,101621.52
2023-05-05T10:15:12.134Z,101621.38
2023-05-05T10:18:06.123Z,101622.85
2023-05-05T10:20:38.791Z,101619.15
2023-05-05T10:23:10.624Z,101616.16
2023-05-05T10:25:43.950Z,101616.13
2023-05-05T10:28:18.844Z,101616.08
2023-05-05T10:30:51.320Z,101616.35
2023-05-05T10:33:32.092Z,101610.13
2023-05-05T10:36:05.310Z,101598.55
2023-05-05T10:38:34.411Z,101599.05
2023-05-05T10:41:03.472Z,101597.53
2023-05-05T10:43:33.423Z,101598.39
2023-05-05T10:46:02.761Z,101594.49
2023-05-05T10:48:44.848Z,101598.25
2023-05-05T10:51:40.016Z,101592.81
2023-05-05T10:54:21.358Z,101582.13
2023-05-05T10:56:51.495Z,101578.54
2023-05-05T10:59:37.887Z,101576.95
2023-05-05T11:02:24.183Z,101574.02
2023-05-05T11:05:16.884Z,101567.86
2023-05-05T11:07:47.576Z,101562.80
2023-05-05T11:10:20.592Z,101557.78
2023-05-05T11:12:57.805Z,101559.48
2023-05-05T11:15:26.793Z,101547.80
2023-05-05T11:18:06.800Z,101552.42
2023-05-05T11:20:37.129Z,101546.36
2023-05-05T11:23:05.787Z,101539.13
2023-05-05T11:25:34.467Z,101543.09
2023-05-05T11:28:11.959Z,101547.27
2023-05-05T11:30:59.485Z,101548.32
2023-05-05T11:33:32.604Z,101518.83
2023-05-05T11:36:08.752Z,101533.47
2023-05-05T11:38:46.683Z,101541.14
2023-05-05T11:41:38.399Z,101536.80
2023-05-05T11:44:18.221Z,101531.93
2023-05-05T11:46:53.061Z,101535.37
2023-05-05T11:49:28.490Z,101533.42
2023-05-05T11:52:02.020Z,101533.52
2023-05-05T11:54:31.862Z,101537.18
2023-05-05T11:57:07.201Z,101527.20
2023-05-05T11:59:49.765Z,101528.85
2023-05-05T12:02:19.929Z,101531.46
2023-05-05T12:04:50.527Z,101531.77
2023-05-05T12:07:21.343Z,101531.61
2023-05-05T12:09:50.768Z,101532.79
2023-05-05T12:12:20.278Z,101535.11
2023-05-05T12:14:54.664Z,101533.82
2023-05-05T12:17:23.474Z,101534.28
2023-05-05T12:19:54.085Z,101530.83
2023-05-05T12:22:26.022Z,101531.16
2023-05-05T12:25:06.546Z,101534.77
2023-05-05T12:27:35.868Z,101530.77
2023-05-05T12:30:12.685Z,101526.21
2023-05-05T12:32:41.753Z,101526.13
2023-05-05T12:35:11.234Z,101524.91
2023-05-05T12:37:40.729Z,101525.58
2023-05-05T12:40:48.891Z,101525.91
2023-05-05T12:43:43.990Z,101520.81
2023-05-05T12:46:13.734Z,101516.98
2023-05-05T12:48:48.114Z,101515.92
2023-05-05T12:51:23.359Z,101513.92
2023-05-05T12:54:03.297Z,101509.17
2023-05-05T12:56:36.533Z,101516.32
2023-05-05T12:59:09.798Z,101508.43
2023-05-05T13:01:50.975Z,101507.23
2023-05-05T13:04:21.431Z,101505.79
2023-05-05T13:07:07.838Z,101499.67
2023-05-05T13:09:36.596Z,101498.89
2023-05-05T13:12:07.195Z,101494.89
2023-05-05T13:14:36.519Z,101496.27
2023-05-05T13:17:05.415Z,101498.11
2023-05-05T13:19:35.903Z,101492.16
2023-05-05T13:22:04.557Z,101499.60
2023-05-05T13:24:46.422Z,101499.08
2023-05-05T13:27:16.411Z,101500.52
2023-05-05T13:29:45.196Z,101498.89
2023-05-05T13:32:13.924Z,101486.48
2023-05-05T13:34:44.171Z,101489.02
2023-05-05T13:37:12.858Z,101483.54
2023-05-05T13:39:41.566Z,101481.20
2023-05-05T13:42:10.359Z,101480.41
2023-05-05T13:44:39.476Z,101481.44
2023-05-05T13:47:08.655Z,101472.84
2023-05-05T13:49:37.396Z,101468.67
2023-05-05T13:52:06.086Z,101460.23
2023-05-05T13:54:34.775Z,101459.19
2023-05-05T13:57:03.524Z,101459.79
2023-05-05T13:59:32.256Z,101460.69
2023-05-05T14:02:01.284Z,101460.52
2023-05-05T14:04:30.098Z,101460.44
2023-05-05T14:06:58.931Z,101460.79
2023-05-05T14:09:27.622Z,101460.52
2023-05-05T14:11:56.272Z,101458.10
2023-05-05T14:14:24.924Z,101454.59
2023-05-05T14:16:53.618Z,101461.90
2023-05-05T14:19:22.346Z,101458.48
2023-05-05T14:21:51.156Z,101461.11
2023-05-05T14:24:19.834Z,101460.51
2023-05-05T14:26:49.158Z,101453.48
2023-05-05T14:29:17.892Z,101447.69
2023-05-05T14:31:46.674Z,101445.75
2023-05-05T14:34:15.324Z,101447.46
2023-05-05T14:36:43.999Z,101448.59
2023-05-05T14:39:12.687Z,101447.82
2023-05-05T14:41:41.364Z,101446.73
2023-05-05T14:44:09.983Z,101452.38
2023-05-05T14:46:38.668Z,101452.05
2023-05-05T14:49:07.331Z,101446.64
2023-05-05T14:51:35.997Z,101447.28
2023-05-05T14:54:09.337Z,101450.94
2023-05-05T14:56:43.101Z,101456.42
2023-05-05T14:59:11.758Z,101444.47
2023-05-05T15:01:40.830Z,101446.25
2023-05-05T15:04:09.857Z,101448.71
2023-05-05T15:06:38.601Z,101447.36
2023-05-05T15:09:07.304Z,101451.23
2023-05-05T15:11:36.025Z,101454.15
2023-05-05T15:14:04.681Z,101455.91
2023-05-05T15:16:35.158Z,101447.29
2023-05-05T15:19:04.138Z,101448.99
2023-05-05T15:21:32.810Z,101440.97
2023-05-05T15:24:01.491Z,101440.40
2023-05-05T15:26:30.197Z,101440.20
2023-05-05T15:28:58.864Z,101443.29
2023-05-05T15:31:27.545Z,101440.19
2023-05-05T15:33:56.395Z,101443.38
2023-05-05T15:36:25.101Z,101448.30
2023-05-05T15:38:53.768Z,101453.13
2023-05-05T15:41:22.855Z,101447.32
2023-05-05T15:43:51.499Z,101441.98
2023-05-05T15:46:20.269Z,101446.09
2023-05-05T15:48:48.939Z,101442.02
2023-05-05T15:51:17.627Z,101446.29
2023-05-05T15:53:46.607Z,101446.71
2023-05-05T15:56:15.258Z,101443.83
2023-05-05T15:58:43.989Z,101445.77
2023-05-05T16:01:12.706Z,101448.67
2023-05-05T16:03:41.415Z,101447.23
2023-05-05T16:06:12.293Z,101449.14
2023-05-05T16:08:41.306Z,101444.74
2023-05-05T16:11:09.984Z,101444.27
2023-05-05T16:13:39.245Z,101442.86
2023-05-05T16:16:08.028Z,101440.23
2023-05-05T16:18:36.740Z,101436.95
2023-05-05T16:21:05.476Z,101433.09
2023-05-05T16:23:34.242Z,101432.96
2023-05-05T16:26:04.071Z,101430.27
2023-05-05T16:28:34.274Z,101429.21
2023-05-05T16:31:03.168Z,101424.11
2023-05-05T16:33:31.852Z,101422.91
2023-05-05T16:36:00.588Z,101422.04
2023-05-05T16:38:29.334Z,101423.63
2023-05-05T16:40:58.044Z,101422.01
2023-05-05T16:43:26.739Z,101423.51
2023-05-05T16:45:55.390Z,101425.77
2023-05-05T16:48:24.377Z,101428.40
2023-05-05T16:50:53.001Z,101428.48
2023-05-05T16:53:21.736Z,101426.36
2023-05-05T16:55:54.573Z,101424.93
2023-05-05T16:58:23.643Z,101421.60
2023-05-05T17:00:52.925Z,101425.73
2023-05-05T17:03:22.623Z,101424.63
2023-05-05T17:05:53.085Z,101429.43
2023-05-05T17:08:21.968Z,101427.42
2023-05-05T17:10:50.616Z,101430.98
2023-05-05T17:13:19.425Z,101428.30
2023-05-05T17:15:48.346Z,101427.34
2023-05-05T17:18:20.105Z,101430.25
2023-05-05T17:20:49.913Z,101439.45
2023-05-05T17:23:21.082Z,101438.23
2023-05-05T17:25:49.732Z,101439.88
2023-05-05T17:28:18.462Z,101442.34
2023-05-05T17:30:47.127Z,101449.05
2023-05-05T17:33:18.387Z,101449.44
2023-05-05T17:35:47.875Z,101452.27
2023-05-05T17:38:17.597Z,101458.48
2023-05-05T17:40:46.681Z,101452.05
2023-05-05T17:43:15.409Z,101454.76
2023-05-05T17:45:44.150Z,101455.56
2023-05-05T17:48:12.894Z,101455.30
2023-05-05T17:50:43.391Z,101455.06
2023-05-05T17:53:12.414Z,101455.20
2023-05-05T17:55:45.263Z,101458.40
2023-05-05T17:58:13.944Z,101462.95
2023-05-05T18:00:42.599Z,101456.05
2023-05-05T18:03:11.364Z,101452.45
2023-05-05T18:05:40.101Z,101454.02
2023-05-05T18:08:09.003Z,101456.00
2023-05-05T18:10:37.746Z,101454.42
2023-05-05T18:13:06.692Z,101458.04
2023-05-05T18:15:35.376Z,101457.89
2023-05-05T18:18:04.276Z,101458.14
2023-05-05T18:20:32.963Z,101454.19
2023-05-05T18:23:01.891Z,101455.89
2023-05-05T18:25:30.614Z,101455.19
2023-05-05T18:27:59.398Z,101455.11
2023-05-05T18:30:28.169Z,101459.66
2023-05-05T18:32:56.908Z,101459.42
2023-05-05T18:35:26.079Z,101465.36
2023-05-05T18:37:55.223Z,101467.56
2023-05-05T18:40:23.940Z,101473.16
2023-05-05T18:42:52.685Z,101474.98
2023-05-05T18:45:21.573Z,101473.98
2023-05-05T18:47:50.261Z,101475.29
2023-05-05T18:50:19.018Z,101476.23
2023-05-05T18:52:47.720Z,101477.00
2023-05-05T18:55:16.418Z,101478.40
2023-05-05T18:57:45.053Z,101478.40
2023-05-05T19:00:14.108Z,101477.17
2023-05-05T19:02:42.853Z,101481.69
2023-05-05T19:05:11.688Z,101480.38
2023-05-05T19:07:40.980Z,101474.61
2023-05-05T19:10:10.269Z,101473.11
2023-05-05T19:12:39.072Z,101465.80
2023-05-05T19:15:08.554Z,101467.81
2023-05-05T19:17:37.505Z,101466.21
2023-05-05T19:20:06.669Z,101467.61
2023-05-05T19:22:35.378Z,101466.85
2023-05-05T19:25:04.348Z,101468.05
2023-05-05T19:27:33.990Z,101464.91
2023-05-05T19:30:06.379Z,101464.32
2023-05-05T19:32:35.287Z,101463.69
2023-05-05T19:35:06.768Z,101457.94
2023-05-05T19:37:35.503Z,101459.55
2023-05-05T19:40:04.863Z,101455.73
2023-05-05T19:42:33.558Z,101459.98
2023-05-05T19:45:02.267Z,101460.77
2023-05-05T19:47:31.643Z,101461.25
2023-05-05T19:50:00.393Z,101464.63
2023-05-05T19:52:29.071Z,101465.33
2023-05-05T19:54:59.144Z,101466.80
2023-05-05T19:57:28.123Z,101466.02
2023-05-05T19:59:56.770Z,101463.42
2023-05-05T20:02:27.228Z,101466.56
2023-05-05T20:04:56.207Z,101462.64
2023-05-05T20:07:25.067Z,101461.44
2023-05-05T20:09:53.838Z,101459.67
2023-05-05T20:12:23.522Z,101463.40
2023-05-05T20:14:52.228Z,101464.24
2023-05-05T20:17:21.494Z,101467.22
2023-05-05T20:19:50.599Z,101467.58
2023-05-05T20:22:19.357Z,101471.08
2023-05-05T20:24:48.164Z,101467.11
2023-05-05T20:27:17.029Z,101468.68
2023-05-05T20:29:45.698Z,101470.27
2023-05-05T20:32:14.641Z,101470.46
2023-05-05T20:34:43.325Z,101465.82
2023-05-05T20:37:13.784Z,101466.46
2023-05-05T20:39:43.804Z,101463.45
2023-05-05T20:42:12.729Z,101467.23
2023-05-05T20:44:42.166Z,101464.71
2023-05-05T20:47:10.921Z,101460.55
2023-05-05T20:49:39.719Z,101456.75
2023-05-05T20:52:08.394Z,101461.27
2023-05-05T20:54:37.167Z,101456.83
2023-05-05T20:57:07.281Z,101454.75
2023-05-05T20:59:36.014Z,101452.30
2023-05-05T21:02:04.816Z,101458.36
2023-05-05T21:04:33.790Z,101455.14
2023-05-05T21:07:02.937Z,101450.67
2023-05-05T21:09:31.734Z,101446.81
2023-05-05T21:12:00.730Z,101449.91
2023-05-05T21:14:29.684Z,101446.60
2023-05-05T21:16:58.470Z,101447.18
2023-05-05T21:19:27.267Z,101438.89
2023-05-05T21:21:59.179Z,101435.14
2023-05-05T21:24:28.353Z,101433.59
2023-05-05T21:26:57.104Z,101431.52
2023-05-05T21:29:25.952Z,101431.80
2023-05-05T21:31:54.671Z,101424.57
2023-05-05T21:34:23.476Z,101423.41
2023-05-05T21:36:52.105Z,101419.51
2023-05-05T21:39:20.759Z,101416.67
2023-05-05T21:41:49.927Z,101411.97
2023-05-05T21:44:18.735Z,101410.34
2023-05-05T21:46:47.515Z,101411.29
2023-05-05T21:49:17.689Z,101406.91
2023-05-05T21:51:46.512Z,101406.05
2023-05-05T21:54:15.328Z,101409.98
2023-05-05T21:56:44.063Z,101412.75
2023-05-05T21:59:13.903Z,101404.90
2023-05-05T22:01:43.533Z,101404.48
2023-05-05T22:04:12.259Z,101409.61
2023-05-05T22:06:41.881Z,101406.64
2023-05-05T22:09:10.598Z,101409.95
2023-05-05T22:11:39.272Z,101402.27
2023-05-05T22:14:07.922Z,101403.70
2023-05-05T22:16:36.674Z,101407.70
2023-05-05T22:19:05.411Z,101399.91
2023-05-05T22:21:34.079Z,101399.44
2023-05-05T22:24:02.785Z,101400.77
2023-05-05T22:26:31.494Z,101398.70
2023-05-05T22:29:00.200Z,101389.05
2023-05-05T22:31:29.512Z,101391.52
2023-05-05T22:33:58.395Z,101394.89
2023-05-05T22:36:27.636Z,101396.12
2023-05-05T22:38:56.365Z,101389.38
2023-05-05T22:41:25.609Z,101396.50
2023-05-05T22:43:54.313Z,101392.77
2023-05-05T22:46:22.976Z,101391.30
2023-05-05T22:48:52.899Z,101392.36
2023-05-05T22:51:21.677Z,101386.36
2023-05-05T22:53:51.085Z,101389.53
2023-05-05T22:56:19.812Z,101382.25
2023-05-05T22:58:48.542Z,101378.30
2023-05-05T23:01:17.257Z,101378.91
2023-05-05T23:03:45.929Z,101380.63
2023-05-05T23:06:14.580Z,101381.65
2023-05-05T23:08:43.309Z,101378.11
2023-05-05T23:11:11.955Z,101376.81
2023-05-05T23:13:40.753Z,101372.94
2023-05-05T23:16:09.545Z,101377.29
2023-05-05T23:18:38.781Z,101377.13
2023-05-05T23:21:07.573Z,101374.52
2023-05-05T23:23:36.383Z,101375.64
2023-05-05T23:26:05.078Z,101372.04
2023-05-05T23:28:33.716Z,101373.77
2023-05-05T23:31:02.432Z,101373.50
2023-05-05T23:33:31.363Z,101370.88
2023-05-05T23:36:00.050Z,101367.30
2023-05-05T23:38:28.818Z,101366.29
2023-05-05T23:40:57.528Z,101366.39
2023-05-05T23:43:26.147Z,101359.41
2023-05-05T23:45:54.853Z,101354.88
2023-05-05T23:48:24.005Z,101349.84
2023-05-05T23:50:52.707Z,101346.23
2023-05-05T23:53:21.600Z,101341.60
2023-05-05T23:55:50.458Z,101338.76
2023-05-05T23:58:19.110Z,101332.16
